Madelia, Minnesota
Current Conditions -  °F | °C
As of 5:14 PM on Thursday 27 Nov 2014 (Local Time) from KJYG Reporting Station
Clear Clear  
Wind Chill: -10°   Ceiling: Unl
Heat Index:   Visibility: 10mi
Dew Point: -6°   Wind: 6mph
Humidity: 72%   Direction: 110°ESE
Pressure: 30.38"   Gusts: NA
Location:  44.05°N, 94.42°W
Report Text: KJYG 272314Z AUTO 11005KT 10SM CLR M17/M21 A3038 RMK AO2
Loading
Personal Weather Stations






























Interactive Weather Map New forecast layout! Learn more

10-Day Weather Forecast

Advertisements
Track Severe Weather on mobile